webcam facing south webcam facing south


webcam city Arachova webcam city Arachova


webcam city Arachova webcam city Arachova


Thunder radar blitzortung!


Rain radar rain snow radar


Visit our other sites:

Hotel Skamnos

Arachova Weather Station

Skamnos Weather Station

Skamnos Weather2

Arachova Weather2

WU Skamnos

WU Arachova


Other Weather Sites:

Parnassos Snow Forecast

Parnassos Snow Report

Kelaria 1950m

Kelaria 2240m

Fterolaka 2080m



No particular awareness of the weather is required.    There are no Weather-warnings

Nearby METAR Reports

  
1089 - Arachova Meteo, Greece
Distance from station: N 1km
Updated: 25-05-2017 21:19
Overcast
Overcast  
 Wind from WNW
Wind: WNW 2 km/h
Temperature:  14°C
Dew Point:  10°C
Humidity:  77%
Barometer:  1011 hPa
Clouds:  Overcast
Visibility:  8 km
Cloud details:  Overcast 488 m
2017/05/25 18:19 1089 251819Z 29201KT 8000 OVC016 14/10 Q1011
1155 - Arachova2, Greece
Distance from station: N 1km
Updated: 25-05-2017 21:19
Overcast
Overcast  
 Wind from NW
Wind: NW 4 km/h
Temperature:  13°C
Dew Point:  9°C
Humidity:  77%
Barometer:  1013 hPa
Clouds:  Overcast
Visibility:  8 km
Cloud details:  Overcast 396 m
2017/05/25 18:19 1155 251819Z 31502KT 8000 OVC013 13/09 Q1013
1509 - Skamnos Parnassos 1250m, Greece
Distance from station: N 10km
Updated: 25-05-2017 21:20
Light rain, Overcast
Light rain, Overcast  
 Wind from NE
Wind: NE 2 km/h
Temperature:  10°C
Dew Point:  8°C
Humidity:  88%
Barometer:  1022 hPa
Summary:  Light Rain
Clouds:  Overcast
Visibility:  8 km
Cloud details:  Overcast 2743 m
2017/05/25 18:20 1509 251820Z 04501KT 8000 -RA OVC090 10/08 Q1022
1250 - Parnassos Kelaria 1950m, Greece
Distance from station: NNE 10km
Updated: 25-05-2017 21:19
Overcast
Overcast  
 Wind from SW
Wind: SW 7 km/h
Temperature:  6°C
Wind Chill:  4°C
Dew Point:  4°C
Humidity:  87%
Barometer:  1015 hPa
Clouds:  Overcast
Visibility:  7 km
Cloud details:  Overcast 2134 m
2017/05/25 18:19 1250 251819Z 22504KT 7000 OVC070 06/04 Q1015
1126 - Parnassos Fterolaka 2080m, Greece
Distance from station: NNE 10km
Updated: 21-03-2015 01:04
NOT Current
Few Clouds
Few Clouds  
 Wind from calm
Wind: Calm
Temperature:  -11°C
Dew Point:  -11°C
Humidity:  100%
Barometer:  1019 hPa
Clouds:  Few Clouds
Visibility:  6 km
Cloud details:  Few Clouds 305 m
2015/03/20 23:04 1126 202304Z 00000KT 6000 FEW010 M11/M11 Q1019
1382 - Parnassos Helcules 2240m, Greece
Distance from station: NNE 10km
Updated: 20-04-2015 13:20
NOT Current
Fog
Fog  
 Wind from SW
Wind: SW 7 km/h
Temperature:  1°C
Wind Chill:  -2°C
Dew Point:  1°C
Humidity:  100%
Barometer:  1009 hPa
Summary:  Fog
Visibility:  5 km
2015/04/20 10:20 1382 201020Z 22504KT 5000 FG 01/01 Q1009
1219 - Anrikyra, Greece
Distance from station: S 30km
Updated: 25-05-2017 21:19
Overcast
Overcast  
 Wind from W
Wind: W 13 km/h
Temperature:  20°C
Dew Point:  13°C
Humidity:  64%
Barometer:  1010 hPa
Clouds:  Overcast
Visibility:  9 km
Cloud details:  Overcast 762 m
2017/05/25 18:19 1219 251819Z 27007KT 9000 OVC025 20/13 Q1010
1015 - Galaxeidi, Greece
Distance from station: S 30km
Updated: 25-05-2017 21:19
Overcast
Overcast  
 Wind from WNW
Wind: WNW 15 km/h
Temperature:  21°C
Dew Point:  13°C
Humidity:  60%
Barometer:  1021 hPa
Clouds:  Overcast
Visibility:  9 km
Cloud details:  Overcast 914 m
2017/05/25 18:19 1015 251819Z 29208KT 9000 OVC030 21/13 Q1021
1088 - Amfikleia, Greece
Distance from station: N 20km
Updated: 25-05-2017 21:19
Overcast
Overcast  
 Wind from calm
Wind: Calm
Temperature:  16°C
Dew Point:  12°C
Humidity:  77%
Barometer:  1011 hPa
Clouds:  Overcast
Visibility:  8 km
Cloud details:  Overcast 427 m
2017/05/25 18:19 1088 251819Z 00000KT 8000 OVC014 16/12 Q1011
1337 - Polydroso, Greece
Distance from station: N 20km
Updated: 25-05-2017 21:19
Overcast
Overcast  
 Wind from calm
Wind: Calm
Temperature:  17°C
Dew Point:  14°C
Humidity:  83%
Barometer:  1011 hPa
Clouds:  Overcast
Visibility:  7 km
Cloud details:  Overcast 366 m
2017/05/25 18:19 1337 251819Z 00000KT 7000 OVC012 17/14 Q1011

Script developed by  Saratoga-weather.org Adapted for the template by  Weerstation Leuven